sensor_id;sensor_type;location;lat;lon;timestamp;P1;durP1;ratioP1;P2;durP2;ratioP2
51949;SDS011;37974;53.218;6.640;2022-12-24T00:00:35;63.58;;;22.25;;
51949;SDS011;37974;53.218;6.640;2022-12-24T00:03:01;52.70;;;21.48;;
51949;SDS011;37974;53.218;6.640;2022-12-24T00:05:27;58.92;;;22.40;;
51949;SDS011;37974;53.218;6.640;2022-12-24T00:07:53;49.05;;;21.73;;
51949;SDS011;37974;53.218;6.640;2022-12-24T00:10:19;53.75;;;21.38;;
51949;SDS011;37974;53.218;6.640;2022-12-24T00:12:47;56.17;;;22.00;;
51949;SDS011;37974;53.218;6.640;2022-12-24T00:15:13;49.25;;;21.08;;
51949;SDS011;37974;53.218;6.640;2022-12-24T00:17:38;60.25;;;21.17;;
51949;SDS011;37974;53.218;6.640;2022-12-24T00:20:04;53.08;;;21.73;;
51949;SDS011;37974;53.218;6.640;2022-12-24T00:22:33;57.30;;;20.85;;
51949;SDS011;37974;53.218;6.640;2022-12-24T00:24:59;63.85;;;22.48;;
51949;SDS011;37974;53.218;6.640;2022-12-24T00:27:25;59.60;;;23.05;;
51949;SDS011;37974;53.218;6.640;2022-12-24T00:29:51;57.58;;;21.58;;
51949;SDS011;37974;53.218;6.640;2022-12-24T00:32:17;60.00;;;22.50;;
51949;SDS011;37974;53.218;6.640;2022-12-24T00:34:42;65.85;;;24.15;;
51949;SDS011;37974;53.218;6.640;2022-12-24T00:37:08;57.95;;;23.20;;
51949;SDS011;37974;53.218;6.640;2022-12-24T00:39:34;52.85;;;22.02;;
51949;SDS011;37974;53.218;6.640;2022-12-24T00:42:00;58.50;;;22.48;;
51949;SDS011;37974;53.218;6.640;2022-12-24T00:44:25;60.30;;;23.02;;
51949;SDS011;37974;53.218;6.640;2022-12-24T00:46:51;63.30;;;22.23;;
51949;SDS011;37974;53.218;6.640;2022-12-24T00:49:17;64.20;;;22.75;;
51949;SDS011;37974;53.218;6.640;2022-12-24T00:51:46;58.17;;;22.63;;
51949;SDS011;37974;53.218;6.640;2022-12-24T00:54:12;57.13;;;23.17;;
51949;SDS011;37974;53.218;6.640;2022-12-24T00:56:38;49.85;;;21.50;;
51949;SDS011;37974;53.218;6.640;2022-12-24T00:59:04;59.00;;;22.90;;
51949;SDS011;37974;53.218;6.640;2022-12-24T01:01:30;57.03;;;22.25;;
51949;SDS011;37974;53.218;6.640;2022-12-24T01:04:14;54.92;;;21.92;;
51949;SDS011;37974;53.218;6.640;2022-12-24T01:07:01;78.30;;;24.58;;
51949;SDS011;37974;53.218;6.640;2022-12-24T01:09:32;70.10;;;23.92;;
51949;SDS011;37974;53.218;6.640;2022-12-24T01:11:57;63.08;;;23.35;;
51949;SDS011;37974;53.218;6.640;2022-12-24T01:14:28;66.05;;;22.67;;
51949;SDS011;37974;53.218;6.640;2022-12-24T01:16:54;63.45;;;22.23;;
51949;SDS011;37974;53.218;6.640;2022-12-24T01:19:19;56.80;;;22.38;;
51949;SDS011;37974;53.218;6.640;2022-12-24T01:21:45;60.78;;;22.27;;
51949;SDS011;37974;53.218;6.640;2022-12-24T01:24:23;79.82;;;25.08;;
51949;SDS011;37974;53.218;6.640;2022-12-24T01:26:54;58.47;;;22.88;;
51949;SDS011;37974;53.218;6.640;2022-12-24T01:29:30;62.30;;;23.73;;
51949;SDS011;37974;53.218;6.640;2022-12-24T01:32:01;73.13;;;23.02;;
51949;SDS011;37974;53.218;6.640;2022-12-24T01:34:51;59.33;;;22.85;;
51949;SDS011;37974;53.218;6.640;2022-12-24T01:37:22;52.05;;;22.02;;
51949;SDS011;37974;53.218;6.640;2022-12-24T01:39:51;50.67;;;22.25;;
51949;SDS011;37974;53.218;6.640;2022-12-24T01:42:56;54.75;;;22.17;;
51949;SDS011;37974;53.218;6.640;2022-12-24T01:45:48;64.40;;;24.50;;
51949;SDS011;37974;53.218;6.640;2022-12-24T01:48:32;55.85;;;23.15;;
51949;SDS011;37974;53.218;6.640;2022-12-24T01:51:07;56.58;;;22.58;;
51949;SDS011;37974;53.218;6.640;2022-12-24T01:53:46;67.00;;;24.88;;
51949;SDS011;37974;53.218;6.640;2022-12-24T01:56:18;52.95;;;22.88;;
51949;SDS011;37974;53.218;6.640;2022-12-24T01:58:54;75.88;;;24.50;;
51949;SDS011;37974;53.218;6.640;2022-12-24T02:01:33;64.20;;;23.70;;
51949;SDS011;37974;53.218;6.640;2022-12-24T02:04:08;53.53;;;23.45;;
51949;SDS011;37974;53.218;6.640;2022-12-24T02:07:15;64.32;;;24.50;;
51949;SDS011;37974;53.218;6.640;2022-12-24T02:09:52;70.10;;;25.63;;
51949;SDS011;37974;53.218;6.640;2022-12-24T02:12:26;85.82;;;26.88;;
51949;SDS011;37974;53.218;6.640;2022-12-24T02:14:56;56.50;;;24.08;;
51949;SDS011;37974;53.218;6.640;2022-12-24T02:19:55;92.85;;;27.23;;
51949;SDS011;37974;53.218;6.640;2022-12-24T02:30:44;68.55;;;26.02;;
51949;SDS011;37974;53.218;6.640;2022-12-24T02:35:53;62.42;;;24.13;;
51949;SDS011;37974;53.218;6.640;2022-12-24T02:40:57;73.47;;;26.17;;
51949;SDS011;37974;53.218;6.640;2022-12-24T02:43:35;62.72;;;26.02;;
51949;SDS011;37974;53.218;6.640;2022-12-24T02:46:10;72.15;;;25.67;;
51949;SDS011;37974;53.218;6.640;2022-12-24T02:48:41;61.75;;;24.60;;
51949;SDS011;37974;53.218;6.640;2022-12-24T02:51:13;105.85;;;29.05;;
51949;SDS011;37974;53.218;6.640;2022-12-24T02:53:53;64.82;;;25.13;;
51949;SDS011;37974;53.218;6.640;2022-12-24T02:56:24;64.03;;;25.10;;
51949;SDS011;37974;53.218;6.640;2022-12-24T03:04:53;75.57;;;26.60;;
51949;SDS011;37974;53.218;6.640;2022-12-24T03:07:34;63.75;;;26.02;;
51949;SDS011;37974;53.218;6.640;2022-12-24T03:12:49;81.78;;;27.23;;
51949;SDS011;37974;53.218;6.640;2022-12-24T03:15:19;64.18;;;24.63;;
51949;SDS011;37974;53.218;6.640;2022-12-24T03:17:55;70.15;;;26.50;;
51949;SDS011;37974;53.218;6.640;2022-12-24T03:20:24;72.70;;;26.35;;
51949;SDS011;37974;53.218;6.640;2022-12-24T03:23:02;88.32;;;28.67;;
51949;SDS011;37974;53.218;6.640;2022-12-24T03:25:41;71.82;;;26.70;;
51949;SDS011;37974;53.218;6.640;2022-12-24T03:28:42;78.43;;;27.92;;
51949;SDS011;37974;53.218;6.640;2022-12-24T03:31:11;73.68;;;27.15;;
51949;SDS011;37974;53.218;6.640;2022-12-24T03:34:00;65.38;;;25.60;;
51949;SDS011;37974;53.218;6.640;2022-12-24T03:36:28;56.55;;;24.90;;
51949;SDS011;37974;53.218;6.640;2022-12-24T03:38:54;59.25;;;24.33;;
51949;SDS011;37974;53.218;6.640;2022-12-24T03:41:25;48.33;;;23.02;;
51949;SDS011;37974;53.218;6.640;2022-12-24T03:44:03;50.35;;;22.38;;
51949;SDS011;37974;53.218;6.640;2022-12-24T03:46:38;41.58;;;20.67;;
51949;SDS011;37974;53.218;6.640;2022-12-24T03:49:09;43.00;;;19.15;;
51949;SDS011;37974;53.218;6.640;2022-12-24T03:52:00;46.95;;;21.08;;
51949;SDS011;37974;53.218;6.640;2022-12-24T03:54:35;37.83;;;18.80;;
51949;SDS011;37974;53.218;6.640;2022-12-24T03:57:08;40.83;;;18.20;;
51949;SDS011;37974;53.218;6.640;2022-12-24T03:59:39;40.25;;;17.10;;
51949;SDS011;37974;53.218;6.640;2022-12-24T04:02:35;33.90;;;14.38;;
51949;SDS011;37974;53.218;6.640;2022-12-24T04:05:25;32.03;;;13.60;;
51949;SDS011;37974;53.218;6.640;2022-12-24T04:07:54;28.38;;;12.20;;
51949;SDS011;37974;53.218;6.640;2022-12-24T04:10:32;33.97;;;12.75;;
51949;SDS011;37974;53.218;6.640;2022-12-24T04:13:13;26.13;;;11.85;;
51949;SDS011;37974;53.218;6.640;2022-12-24T04:16:29;30.73;;;10.63;;
51949;SDS011;37974;53.218;6.640;2022-12-24T04:19:45;31.23;;;11.93;;
51949;SDS011;37974;53.218;6.640;2022-12-24T04:22:49;27.75;;;10.95;;
51949;SDS011;37974;53.218;6.640;2022-12-24T04:25:45;28.92;;;11.68;;
51949;SDS011;37974;53.218;6.640;2022-12-24T04:28:51;27.75;;;11.93;;
51949;SDS011;37974;53.218;6.640;2022-12-24T04:31:47;28.48;;;11.50;;
51949;SDS011;37974;53.218;6.640;2022-12-24T04:34:13;35.05;;;12.07;;
51949;SDS011;37974;53.218;6.640;2022-12-24T04:37:18;33.78;;;11.40;;
51949;SDS011;37974;53.218;6.640;2022-12-24T04:40:09;39.75;;;11.18;;
51949;SDS011;37974;53.218;6.640;2022-12-24T04:43:15;35.30;;;11.07;;
51949;SDS011;37974;53.218;6.640;2022-12-24T04:45:45;41.95;;;11.38;;
51949;SDS011;37974;53.218;6.640;2022-12-24T04:49:01;41.75;;;10.73;;
51949;SDS011;37974;53.218;6.640;2022-12-24T04:52:18;50.00;;;10.05;;
51949;SDS011;37974;53.218;6.640;2022-12-24T04:55:24;49.33;;;8.77;;
51949;SDS011;37974;53.218;6.640;2022-12-24T05:04:52;51.40;;;6.65;;
51949;SDS011;37974;53.218;6.640;2022-12-24T05:08:03;66.85;;;7.13;;
51949;SDS011;37974;53.218;6.640;2022-12-24T05:17:50;52.42;;;7.32;;
51949;SDS011;37974;53.218;6.640;2022-12-24T05:20:53;56.72;;;6.72;;
51949;SDS011;37974;53.218;6.640;2022-12-24T05:24:09;53.25;;;7.60;;
51949;SDS011;37974;53.218;6.640;2022-12-24T05:27:48;62.42;;;7.88;;
51949;SDS011;37974;53.218;6.640;2022-12-24T05:34:21;55.60;;;7.80;;
51949;SDS011;37974;53.218;6.640;2022-12-24T05:37:23;52.33;;;6.35;;
51949;SDS011;37974;53.218;6.640;2022-12-24T05:47:11;49.33;;;5.90;;
51949;SDS011;37974;53.218;6.640;2022-12-24T06:07:49;61.15;;;7.18;;
51949;SDS011;37974;53.218;6.640;2022-12-24T06:10:37;68.93;;;8.43;;
51949;SDS011;37974;53.218;6.640;2022-12-24T06:13:54;48.67;;;7.38;;
51949;SDS011;37974;53.218;6.640;2022-12-24T06:20:06;68.07;;;6.68;;
51949;SDS011;37974;53.218;6.640;2022-12-24T06:33:37;75.18;;;7.60;;
51949;SDS011;37974;53.218;6.640;2022-12-24T06:36:44;69.03;;;7.45;;
51949;SDS011;37974;53.218;6.640;2022-12-24T06:39:55;58.25;;;6.75;;
51949;SDS011;37974;53.218;6.640;2022-12-24T06:43:13;59.30;;;7.70;;
51949;SDS011;37974;53.218;6.640;2022-12-24T06:46:53;63.17;;;7.30;;
51949;SDS011;37974;53.218;6.640;2022-12-24T06:49:57;67.30;;;6.70;;
51949;SDS011;37974;53.218;6.640;2022-12-24T06:52:31;62.78;;;8.48;;
51949;SDS011;37974;53.218;6.640;2022-12-24T06:55:26;57.75;;;7.28;;
51949;SDS011;37974;53.218;6.640;2022-12-24T06:58:44;61.97;;;7.78;;
51949;SDS011;37974;53.218;6.640;2022-12-24T07:02:12;70.60;;;8.20;;
51949;SDS011;37974;53.218;6.640;2022-12-24T07:05:47;67.25;;;7.45;;
51949;SDS011;37974;53.218;6.640;2022-12-24T07:08:56;77.80;;;7.20;;
51949;SDS011;37974;53.218;6.640;2022-12-24T07:12:16;60.47;;;8.50;;
51949;SDS011;37974;53.218;6.640;2022-12-24T07:15:16;68.35;;;7.72;;
51949;SDS011;37974;53.218;6.640;2022-12-24T07:21:35;71.90;;;7.90;;
51949;SDS011;37974;53.218;6.640;2022-12-24T07:27:29;62.90;;;7.40;;
51949;SDS011;37974;53.218;6.640;2022-12-24T07:30:18;55.08;;;6.65;;
51949;SDS011;37974;53.218;6.640;2022-12-24T07:32:53;66.88;;;6.90;;
51949;SDS011;37974;53.218;6.640;2022-12-24T07:35:29;62.22;;;8.15;;
51949;SDS011;37974;53.218;6.640;2022-12-24T07:38:27;62.55;;;7.32;;
51949;SDS011;37974;53.218;6.640;2022-12-24T07:41:39;56.70;;;6.22;;
51949;SDS011;37974;53.218;6.640;2022-12-24T07:44:12;59.75;;;7.25;;
51949;SDS011;37974;53.218;6.640;2022-12-24T07:47:14;77.20;;;6.95;;
51949;SDS011;37974;53.218;6.640;2022-12-24T07:56:21;52.13;;;8.05;;
51949;SDS011;37974;53.218;6.640;2022-12-24T07:58:50;59.70;;;7.93;;
51949;SDS011;37974;53.218;6.640;2022-12-24T08:02:01;49.70;;;7.30;;
51949;SDS011;37974;53.218;6.640;2022-12-24T08:04:33;54.08;;;7.43;;
51949;SDS011;37974;53.218;6.640;2022-12-24T08:08:00;47.80;;;6.38;;
51949;SDS011;37974;53.218;6.640;2022-12-24T08:10:30;59.50;;;7.80;;
51949;SDS011;37974;53.218;6.640;2022-12-24T08:12:58;53.63;;;7.78;;
51949;SDS011;37974;53.218;6.640;2022-12-24T08:15:24;66.32;;;8.10;;
51949;SDS011;37974;53.218;6.640;2022-12-24T08:17:55;47.53;;;7.20;;
51949;SDS011;37974;53.218;6.640;2022-12-24T08:20:23;54.22;;;7.47;;
51949;SDS011;37974;53.218;6.640;2022-12-24T08:22:49;59.03;;;7.65;;
51949;SDS011;37974;53.218;6.640;2022-12-24T08:25:17;53.63;;;7.55;;
51949;SDS011;37974;53.218;6.640;2022-12-24T08:27:45;53.88;;;6.68;;
51949;SDS011;37974;53.218;6.640;2022-12-24T08:30:24;57.78;;;7.57;;
51949;SDS011;37974;53.218;6.640;2022-12-24T08:32:52;61.38;;;8.45;;
51949;SDS011;37974;53.218;6.640;2022-12-24T08:35:37;65.97;;;8.50;;
51949;SDS011;37974;53.218;6.640;2022-12-24T08:38:03;60.92;;;7.75;;
51949;SDS011;37974;53.218;6.640;2022-12-24T08:40:32;63.92;;;9.43;;
51949;SDS011;37974;53.218;6.640;2022-12-24T08:43:00;69.18;;;9.20;;
51949;SDS011;37974;53.218;6.640;2022-12-24T08:45:26;63.42;;;8.65;;
51949;SDS011;37974;53.218;6.640;2022-12-24T08:47:52;61.08;;;8.48;;
51949;SDS011;37974;53.218;6.640;2022-12-24T08:50:18;60.45;;;7.80;;
51949;SDS011;37974;53.218;6.640;2022-12-24T08:52:57;55.72;;;7.30;;
51949;SDS011;37974;53.218;6.640;2022-12-24T08:55:32;63.88;;;7.95;;
51949;SDS011;37974;53.218;6.640;2022-12-24T08:58:01;49.70;;;8.50;;
51949;SDS011;37974;53.218;6.640;2022-12-24T09:00:32;67.20;;;8.43;;
51949;SDS011;37974;53.218;6.640;2022-12-24T09:03:05;69.15;;;9.63;;
51949;SDS011;37974;53.218;6.640;2022-12-24T09:05:41;60.47;;;8.40;;
51949;SDS011;37974;53.218;6.640;2022-12-24T09:08:20;54.78;;;8.20;;
51949;SDS011;37974;53.218;6.640;2022-12-24T09:18:41;59.55;;;8.10;;
51949;SDS011;37974;53.218;6.640;2022-12-24T09:21:38;50.90;;;7.25;;
51949;SDS011;37974;53.218;6.640;2022-12-24T09:24:24;56.28;;;7.63;;
51949;SDS011;37974;53.218;6.640;2022-12-24T09:26:52;57.33;;;8.10;;
51949;SDS011;37974;53.218;6.640;2022-12-24T09:29:20;48.40;;;7.28;;
51949;SDS011;37974;53.218;6.640;2022-12-24T09:32:00;54.30;;;7.00;;
51949;SDS011;37974;53.218;6.640;2022-12-24T09:34:28;59.25;;;7.70;;
51949;SDS011;37974;53.218;6.640;2022-12-24T09:36:57;51.95;;;7.35;;
51949;SDS011;37974;53.218;6.640;2022-12-24T09:39:32;55.95;;;7.85;;
51949;SDS011;37974;53.218;6.640;2022-12-24T09:42:09;62.50;;;7.10;;
51949;SDS011;37974;53.218;6.640;2022-12-24T09:44:55;60.22;;;7.35;;
51949;SDS011;37974;53.218;6.640;2022-12-24T09:47:36;59.97;;;6.80;;
51949;SDS011;37974;53.218;6.640;2022-12-24T09:50:17;58.35;;;7.40;;
51949;SDS011;37974;53.218;6.640;2022-12-24T09:52:55;66.85;;;7.97;;
51949;SDS011;37974;53.218;6.640;2022-12-24T09:55:26;59.08;;;7.18;;
51949;SDS011;37974;53.218;6.640;2022-12-24T09:57:57;54.95;;;8.15;;
51949;SDS011;37974;53.218;6.640;2022-12-24T10:00:28;59.42;;;7.53;;
51949;SDS011;37974;53.218;6.640;2022-12-24T10:03:18;48.40;;;7.05;;
51949;SDS011;37974;53.218;6.640;2022-12-24T10:06:00;56.25;;;7.45;;
51949;SDS011;37974;53.218;6.640;2022-12-24T10:14:15;52.20;;;7.78;;
51949;SDS011;37974;53.218;6.640;2022-12-24T10:22:18;55.10;;;7.70;;
51949;SDS011;37974;53.218;6.640;2022-12-24T10:24:54;58.35;;;7.75;;
51949;SDS011;37974;53.218;6.640;2022-12-24T10:27:30;51.47;;;7.78;;
51949;SDS011;37974;53.218;6.640;2022-12-24T10:32:32;54.58;;;8.65;;
51949;SDS011;37974;53.218;6.640;2022-12-24T10:37:48;52.13;;;7.70;;
51949;SDS011;37974;53.218;6.640;2022-12-24T10:40:26;55.97;;;7.40;;
51949;SDS011;37974;53.218;6.640;2022-12-24T10:42:59;53.63;;;7.15;;
51949;SDS011;37974;53.218;6.640;2022-12-24T10:45:26;41.20;;;7.82;;
51949;SDS011;37974;53.218;6.640;2022-12-24T10:48:10;55.28;;;7.07;;
51949;SDS011;37974;53.218;6.640;2022-12-24T10:50:49;57.80;;;8.02;;
51949;SDS011;37974;53.218;6.640;2022-12-24T10:53:23;53.92;;;7.13;;
51949;SDS011;37974;53.218;6.640;2022-12-24T10:56:00;54.53;;;7.28;;
51949;SDS011;37974;53.218;6.640;2022-12-24T10:58:28;46.90;;;7.00;;
51949;SDS011;37974;53.218;6.640;2022-12-24T11:00:55;40.80;;;6.95;;
51949;SDS011;37974;53.218;6.640;2022-12-24T11:03:22;51.58;;;6.47;;
51949;SDS011;37974;53.218;6.640;2022-12-24T11:05:58;49.43;;;7.93;;
51949;SDS011;37974;53.218;6.640;2022-12-24T11:08:25;51.72;;;8.38;;
51949;SDS011;37974;53.218;6.640;2022-12-24T11:10:58;44.58;;;7.53;;
51949;SDS011;37974;53.218;6.640;2022-12-24T11:16:07;48.17;;;6.60;;
51949;SDS011;37974;53.218;6.640;2022-12-24T11:18:36;45.97;;;6.22;;
51949;SDS011;37974;53.218;6.640;2022-12-24T11:21:08;39.05;;;6.68;;
51949;SDS011;37974;53.218;6.640;2022-12-24T11:23:36;53.10;;;7.95;;
51949;SDS011;37974;53.218;6.640;2022-12-24T11:26:02;39.00;;;6.88;;
51949;SDS011;37974;53.218;6.640;2022-12-24T11:28:29;42.65;;;6.88;;
51949;SDS011;37974;53.218;6.640;2022-12-24T11:30:58;38.83;;;5.47;;
51949;SDS011;37974;53.218;6.640;2022-12-24T11:33:27;38.97;;;5.95;;
51949;SDS011;37974;53.218;6.640;2022-12-24T11:35:56;44.58;;;5.82;;
51949;SDS011;37974;53.218;6.640;2022-12-24T11:38:27;35.78;;;7.15;;
51949;SDS011;37974;53.218;6.640;2022-12-24T11:40:58;36.50;;;5.88;;
51949;SDS011;37974;53.218;6.640;2022-12-24T11:43:35;48.35;;;6.53;;
51949;SDS011;37974;53.218;6.640;2022-12-24T11:46:11;41.03;;;6.00;;
51949;SDS011;37974;53.218;6.640;2022-12-24T11:48:39;37.42;;;5.47;;
51949;SDS011;37974;53.218;6.640;2022-12-24T11:51:06;34.75;;;4.93;;
51949;SDS011;37974;53.218;6.640;2022-12-24T11:53:45;40.78;;;5.72;;
51949;SDS011;37974;53.218;6.640;2022-12-24T11:56:24;28.60;;;4.72;;
51949;SDS011;37974;53.218;6.640;2022-12-24T11:58:52;36.78;;;5.18;;
51949;SDS011;37974;53.218;6.640;2022-12-24T12:01:23;29.00;;;4.50;;
51949;SDS011;37974;53.218;6.640;2022-12-24T12:06:34;41.05;;;6.32;;
51949;SDS011;37974;53.218;6.640;2022-12-24T12:09:09;43.15;;;5.63;;
51949;SDS011;37974;53.218;6.640;2022-12-24T12:11:39;38.20;;;5.25;;
51949;SDS011;37974;53.218;6.640;2022-12-24T12:14:08;40.30;;;5.10;;
51949;SDS011;37974;53.218;6.640;2022-12-24T12:16:58;42.97;;;5.78;;
51949;SDS011;37974;53.218;6.640;2022-12-24T12:19:35;33.50;;;5.22;;
51949;SDS011;37974;53.218;6.640;2022-12-24T12:22:10;26.73;;;4.47;;
51949;SDS011;37974;53.218;6.640;2022-12-24T12:24:51;30.80;;;5.63;;
51949;SDS011;37974;53.218;6.640;2022-12-24T12:27:24;30.92;;;4.75;;
51949;SDS011;37974;53.218;6.640;2022-12-24T12:30:00;34.97;;;4.72;;
51949;SDS011;37974;53.218;6.640;2022-12-24T12:32:34;30.83;;;5.38;;
51949;SDS011;37974;53.218;6.640;2022-12-24T12:37:39;27.75;;;4.82;;
51949;SDS011;37974;53.218;6.640;2022-12-24T12:40:31;27.10;;;3.75;;
51949;SDS011;37974;53.218;6.640;2022-12-24T12:45:53;26.38;;;3.53;;
51949;SDS011;37974;53.218;6.640;2022-12-24T12:48:33;26.13;;;4.28;;
51949;SDS011;37974;53.218;6.640;2022-12-24T12:51:13;30.80;;;4.43;;
51949;SDS011;37974;53.218;6.640;2022-12-24T12:53:58;32.13;;;4.35;;
51949;SDS011;37974;53.218;6.640;2022-12-24T12:56:36;37.00;;;4.85;;
51949;SDS011;37974;53.218;6.640;2022-12-24T13:08:18;34.05;;;5.63;;
51949;SDS011;37974;53.218;6.640;2022-12-24T13:13:55;32.20;;;4.72;;
51949;SDS011;37974;53.218;6.640;2022-12-24T13:21:59;27.30;;;4.47;;
51949;SDS011;37974;53.218;6.640;2022-12-24T13:24:28;28.02;;;4.15;;
51949;SDS011;37974;53.218;6.640;2022-12-24T13:27:19;36.42;;;4.90;;
51949;SDS011;37974;53.218;6.640;2022-12-24T13:34:52;30.73;;;4.47;;
51949;SDS011;37974;53.218;6.640;2022-12-24T13:38:32;30.15;;;3.50;;
51949;SDS011;37974;53.218;6.640;2022-12-24T13:44:40;36.38;;;4.28;;
51949;SDS011;37974;53.218;6.640;2022-12-24T13:49:40;25.33;;;3.63;;
51949;SDS011;37974;53.218;6.640;2022-12-24T13:57:26;20.88;;;2.92;;
51949;SDS011;37974;53.218;6.640;2022-12-24T14:00:24;25.35;;;4.47;;
51949;SDS011;37974;53.218;6.640;2022-12-24T14:06:43;32.45;;;4.72;;
51949;SDS011;37974;53.218;6.640;2022-12-24T14:09:47;28.63;;;4.28;;
51949;SDS011;37974;53.218;6.640;2022-12-24T14:12:32;26.58;;;3.97;;
51949;SDS011;37974;53.218;6.640;2022-12-24T14:15:43;20.80;;;3.28;;
51949;SDS011;37974;53.218;6.640;2022-12-24T14:18:10;24.15;;;3.05;;
51949;SDS011;37974;53.218;6.640;2022-12-24T14:21:33;21.60;;;3.08;;
51949;SDS011;37974;53.218;6.640;2022-12-24T14:27:22;26.83;;;3.53;;
51949;SDS011;37974;53.218;6.640;2022-12-24T14:30:15;33.40;;;4.93;;
51949;SDS011;37974;53.218;6.640;2022-12-24T14:33:26;23.38;;;3.75;;
51949;SDS011;37974;53.218;6.640;2022-12-24T14:36:22;30.48;;;4.15;;
51949;SDS011;37974;53.218;6.640;2022-12-24T14:38:48;31.88;;;4.10;;
51949;SDS011;37974;53.218;6.640;2022-12-24T14:46:49;24.45;;;3.67;;
51949;SDS011;37974;53.218;6.640;2022-12-24T14:49:35;22.92;;;3.83;;
51949;SDS011;37974;53.218;6.640;2022-12-24T14:52:33;24.83;;;3.85;;
51949;SDS011;37974;53.218;6.640;2022-12-24T14:55:27;24.23;;;4.07;;
51949;SDS011;37974;53.218;6.640;2022-12-24T14:58:15;29.05;;;4.10;;
51949;SDS011;37974;53.218;6.640;2022-12-24T15:00:51;23.67;;;3.92;;
51949;SDS011;37974;53.218;6.640;2022-12-24T15:03:27;28.33;;;3.92;;
51949;SDS011;37974;53.218;6.640;2022-12-24T15:06:04;23.85;;;3.78;;
51949;SDS011;37974;53.218;6.640;2022-12-24T15:08:37;29.77;;;3.65;;
51949;SDS011;37974;53.218;6.640;2022-12-24T15:11:09;20.30;;;3.60;;
51949;SDS011;37974;53.218;6.640;2022-12-24T15:13:46;23.60;;;3.83;;
51949;SDS011;37974;53.218;6.640;2022-12-24T15:16:24;22.35;;;3.42;;
51949;SDS011;37974;53.218;6.640;2022-12-24T15:18:56;23.42;;;4.30;;
51949;SDS011;37974;53.218;6.640;2022-12-24T15:21:44;31.10;;;4.18;;
51949;SDS011;37974;53.218;6.640;2022-12-24T15:24:23;26.25;;;3.90;;
51949;SDS011;37974;53.218;6.640;2022-12-24T15:26:56;28.58;;;4.30;;
51949;SDS011;37974;53.218;6.640;2022-12-24T15:29:24;30.30;;;4.25;;
51949;SDS011;37974;53.218;6.640;2022-12-24T15:31:59;21.13;;;4.25;;
51949;SDS011;37974;53.218;6.640;2022-12-24T15:39:52;26.02;;;3.70;;
51949;SDS011;37974;53.218;6.640;2022-12-24T15:42:19;25.70;;;4.20;;
51949;SDS011;37974;53.218;6.640;2022-12-24T15:45:06;27.27;;;3.97;;
51949;SDS011;37974;53.218;6.640;2022-12-24T15:47:53;26.88;;;3.95;;
51949;SDS011;37974;53.218;6.640;2022-12-24T15:50:24;26.55;;;4.63;;
51949;SDS011;37974;53.218;6.640;2022-12-24T15:53:02;29.08;;;4.07;;
51949;SDS011;37974;53.218;6.640;2022-12-24T15:58:36;20.10;;;4.13;;
51949;SDS011;37974;53.218;6.640;2022-12-24T16:03:29;24.15;;;3.80;;
51949;SDS011;37974;53.218;6.640;2022-12-24T16:05:59;23.75;;;4.13;;
51949;SDS011;37974;53.218;6.640;2022-12-24T16:08:31;29.52;;;3.80;;
51949;SDS011;37974;53.218;6.640;2022-12-24T16:11:10;24.02;;;4.97;;
51949;SDS011;37974;53.218;6.640;2022-12-24T16:13:41;25.75;;;4.10;;
51949;SDS011;37974;53.218;6.640;2022-12-24T16:16:19;31.27;;;5.13;;
51949;SDS011;37974;53.218;6.640;2022-12-24T16:18:55;21.15;;;4.47;;
51949;SDS011;37974;53.218;6.640;2022-12-24T16:21:39;20.88;;;4.25;;
51949;SDS011;37974;53.218;6.640;2022-12-24T16:24:11;24.60;;;5.93;;
51949;SDS011;37974;53.218;6.640;2022-12-24T16:26:42;35.15;;;4.72;;
51949;SDS011;37974;53.218;6.640;2022-12-24T16:29:09;25.13;;;4.85;;
51949;SDS011;37974;53.218;6.640;2022-12-24T16:31:36;29.60;;;4.55;;
51949;SDS011;37974;53.218;6.640;2022-12-24T16:34:08;29.13;;;5.15;;
51949;SDS011;37974;53.218;6.640;2022-12-24T16:36:42;24.92;;;4.93;;
51949;SDS011;37974;53.218;6.640;2022-12-24T16:39:13;33.70;;;5.28;;
51949;SDS011;37974;53.218;6.640;2022-12-24T16:41:50;29.85;;;4.47;;
51949;SDS011;37974;53.218;6.640;2022-12-24T16:44:42;24.35;;;4.55;;
51949;SDS011;37974;53.218;6.640;2022-12-24T16:47:25;31.27;;;5.50;;
51949;SDS011;37974;53.218;6.640;2022-12-24T16:49:57;24.45;;;6.30;;
51949;SDS011;37974;53.218;6.640;2022-12-24T16:52:27;25.20;;;6.32;;
51949;SDS011;37974;53.218;6.640;2022-12-24T16:54:55;38.83;;;6.65;;
51949;SDS011;37974;53.218;6.640;2022-12-24T16:57:21;40.38;;;6.45;;
51949;SDS011;37974;53.218;6.640;2022-12-24T16:59:48;27.80;;;5.45;;
51949;SDS011;37974;53.218;6.640;2022-12-24T17:02:16;30.70;;;7.50;;
51949;SDS011;37974;53.218;6.640;2022-12-24T17:04:44;28.80;;;5.80;;
51949;SDS011;37974;53.218;6.640;2022-12-24T17:07:10;39.28;;;5.63;;
51949;SDS011;37974;53.218;6.640;2022-12-24T17:09:37;33.40;;;5.90;;
51949;SDS011;37974;53.218;6.640;2022-12-24T17:12:04;37.03;;;6.60;;
51949;SDS011;37974;53.218;6.640;2022-12-24T17:14:30;39.50;;;5.55;;
51949;SDS011;37974;53.218;6.640;2022-12-24T17:16:55;47.42;;;6.15;;
51949;SDS011;37974;53.218;6.640;2022-12-24T17:19:21;37.97;;;5.50;;
51949;SDS011;37974;53.218;6.640;2022-12-24T17:21:47;28.33;;;5.95;;
51949;SDS011;37974;53.218;6.640;2022-12-24T17:24:13;31.08;;;6.07;;
51949;SDS011;37974;53.218;6.640;2022-12-24T17:26:38;37.80;;;6.68;;
51949;SDS011;37974;53.218;6.640;2022-12-24T17:29:04;37.88;;;9.70;;
51949;SDS011;37974;53.218;6.640;2022-12-24T17:31:31;43.92;;;10.10;;
51949;SDS011;37974;53.218;6.640;2022-12-24T17:33:57;42.28;;;10.00;;
51949;SDS011;37974;53.218;6.640;2022-12-24T17:36:23;42.40;;;10.20;;
51949;SDS011;37974;53.218;6.640;2022-12-24T17:38:50;39.28;;;8.88;;
51949;SDS011;37974;53.218;6.640;2022-12-24T17:41:17;45.83;;;9.85;;
51949;SDS011;37974;53.218;6.640;2022-12-24T17:43:43;46.45;;;8.27;;
51949;SDS011;37974;53.218;6.640;2022-12-24T17:46:10;43.97;;;10.15;;
51949;SDS011;37974;53.218;6.640;2022-12-24T17:48:39;52.83;;;12.57;;
51949;SDS011;37974;53.218;6.640;2022-12-24T17:51:06;54.55;;;15.52;;
51949;SDS011;37974;53.218;6.640;2022-12-24T17:53:34;50.35;;;16.40;;
51949;SDS011;37974;53.218;6.640;2022-12-24T17:56:00;47.83;;;15.40;;
51949;SDS011;37974;53.218;6.640;2022-12-24T17:58:27;50.30;;;14.38;;
51949;SDS011;37974;53.218;6.640;2022-12-24T18:00:53;54.85;;;12.90;;
51949;SDS011;37974;53.218;6.640;2022-12-24T18:03:19;38.33;;;12.07;;
51949;SDS011;37974;53.218;6.640;2022-12-24T18:05:45;58.63;;;13.43;;
51949;SDS011;37974;53.218;6.640;2022-12-24T18:08:11;48.53;;;14.25;;
51949;SDS011;37974;53.218;6.640;2022-12-24T18:10:37;49.38;;;10.77;;
51949;SDS011;37974;53.218;6.640;2022-12-24T18:13:03;55.55;;;10.63;;
51949;SDS011;37974;53.218;6.640;2022-12-24T18:15:32;45.53;;;8.88;;
51949;SDS011;37974;53.218;6.640;2022-12-24T18:17:59;34.17;;;8.63;;
51949;SDS011;37974;53.218;6.640;2022-12-24T18:20:27;45.53;;;9.25;;
51949;SDS011;37974;53.218;6.640;2022-12-24T18:22:53;48.38;;;11.13;;
51949;SDS011;37974;53.218;6.640;2022-12-24T18:25:19;44.53;;;11.00;;
51949;SDS011;37974;53.218;6.640;2022-12-24T18:27:45;39.38;;;11.10;;
51949;SDS011;37974;53.218;6.640;2022-12-24T18:30:12;53.60;;;9.63;;
51949;SDS011;37974;53.218;6.640;2022-12-24T18:32:38;58.78;;;9.15;;
51949;SDS011;37974;53.218;6.640;2022-12-24T18:35:04;42.17;;;7.95;;
51949;SDS011;37974;53.218;6.640;2022-12-24T18:37:31;54.10;;;7.75;;
51949;SDS011;37974;53.218;6.640;2022-12-24T18:39:57;49.85;;;8.05;;